createdAt,value
2019-04-30T00:01:39.556Z,11.44
2019-04-30T00:06:39.409Z,11.43
2019-04-30T00:11:36.286Z,11.32
2019-04-30T00:16:36.360Z,11.50
2019-04-30T00:21:31.015Z,11.37
2019-04-30T00:26:26.815Z,11.40
2019-04-30T00:31:27.264Z,11.36
2019-04-30T00:36:29.087Z,11.41
2019-04-30T00:41:25.625Z,11.32
2019-04-30T00:46:25.005Z,11.40
2019-04-30T00:51:21.588Z,11.30
2019-04-30T00:56:24.751Z,11.36
2019-04-30T01:01:19.060Z,11.43
2019-04-30T01:06:17.246Z,11.32
2019-04-30T01:11:15.427Z,11.35
2019-04-30T01:16:10.944Z,11.36
2019-04-30T01:21:11.153Z,11.30
2019-04-30T01:26:08.646Z,11.29
2019-04-30T01:31:04.376Z,11.08
2019-04-30T01:36:04.163Z,11.22
2019-04-30T01:40:59.659Z,11.14
2019-04-30T01:45:55.559Z,11.12
2019-04-30T01:50:51.056Z,11.15
2019-04-30T01:55:47.072Z,11.12
2019-04-30T02:00:42.748Z,11.00
2019-04-30T02:05:38.766Z,11.04
2019-04-30T02:10:34.792Z,11.14
2019-04-30T02:15:31.262Z,11.12
2019-04-30T02:20:28.692Z,11.14
2019-04-30T02:25:25.567Z,11.17
2019-04-30T02:30:21.263Z,11.19
2019-04-30T02:35:19.503Z,11.02
2019-04-30T02:40:14.783Z,11.08
2019-04-30T02:45:10.627Z,10.78
2019-04-30T02:50:15.499Z,10.79
2019-04-30T02:55:05.165Z,10.59
2019-04-30T03:00:01.576Z,10.54
2019-04-30T03:05:00.005Z,10.60
2019-04-30T03:09:55.415Z,10.74
2019-04-30T03:14:50.886Z,10.75
2019-04-30T03:19:46.931Z,10.72
2019-04-30T03:24:44.401Z,10.87
2019-04-30T03:29:40.668Z,10.86
2019-04-30T03:34:41.375Z,10.93
2019-04-30T03:39:39.679Z,10.69
2019-04-30T03:44:34.641Z,10.59
2019-04-30T03:49:30.333Z,10.64
2019-04-30T03:54:25.985Z,10.57
2019-04-30T03:59:21.671Z,10.37
2019-04-30T04:04:20.096Z,10.38
2019-04-30T04:09:15.618Z,10.37
2019-04-30T04:14:12.624Z,10.22
2019-04-30T04:19:09.634Z,10.17
2019-04-30T04:24:04.832Z,10.12
2019-04-30T04:29:00.945Z,10.13
2019-04-30T04:33:59.813Z,10.07
2019-04-30T04:38:55.344Z,10.10
2019-04-30T04:43:51.396Z,10.07
2019-04-30T04:48:49.434Z," 9.97"
2019-04-30T04:53:44.996Z,10.02
2019-04-30T04:58:40.845Z,10.02
2019-04-30T05:03:36.618Z,10.10
2019-04-30T05:08:32.676Z,10.10
2019-04-30T05:13:29.628Z,10.20
2019-04-30T05:18:25.253Z,10.34
2019-04-30T05:23:22.008Z,10.38
2019-04-30T05:28:19.046Z,10.42
2019-04-30T05:33:14.481Z,10.67
2019-04-30T05:38:10.654Z,10.76
2019-04-30T05:43:09.041Z,10.84
2019-04-30T05:48:06.131Z,10.79
2019-04-30T05:53:03.180Z,10.71
2019-04-30T05:58:01.482Z,10.76
2019-04-30T06:02:56.670Z,10.89
2019-04-30T06:07:52.569Z,10.92
2019-04-30T06:12:49.382Z,10.86
2019-04-30T06:17:57.049Z,10.93
2019-04-30T06:22:44.830Z,11.17
2019-04-30T06:27:40.720Z,11.14
2019-04-30T06:32:36.824Z,11.02
2019-04-30T06:37:33.873Z,11.11
2019-04-30T06:42:30.194Z,11.10
2019-04-30T06:47:33.045Z,11.25
2019-04-30T06:52:26.153Z,11.23
2019-04-30T06:57:22.173Z,11.33
2019-04-30T07:02:19.816Z,11.55
2019-04-30T07:07:21.334Z,11.62
2019-04-30T07:12:25.496Z,11.77
2019-04-30T07:17:14.225Z,11.65
2019-04-30T07:22:09.916Z,11.65
2019-04-30T07:27:05.806Z,11.84
2019-04-30T07:32:02.714Z,12.27
2019-04-30T07:37:11.800Z,12.42
2019-04-30T07:42:00.085Z,12.53
2019-04-30T07:46:55.913Z,12.58
2019-04-30T07:51:52.890Z,12.50
2019-04-30T07:56:50.634Z,12.53
2019-04-30T08:02:03.740Z,12.73
2019-04-30T08:06:45.848Z,12.79
2019-04-30T08:11:43.827Z,12.95
2019-04-30T08:16:42.101Z,13.38
2019-04-30T08:21:38.880Z,13.85
2019-04-30T08:26:36.043Z,14.33
2019-04-30T08:31:33.256Z,14.89
2019-04-30T08:36:33.002Z,15.40
2019-04-30T08:41:29.285Z,15.21
2019-04-30T08:46:25.368Z,14.32
2019-04-30T08:51:20.485Z,14.03
2019-04-30T08:56:15.318Z,14.17
2019-04-30T09:01:13.685Z,14.04
2019-04-30T09:06:09.411Z,13.86
2019-04-30T09:11:05.204Z,13.85
2019-04-30T09:16:01.014Z,14.32
2019-04-30T09:21:04.148Z,14.58
2019-04-30T09:25:58.625Z,15.00
2019-04-30T09:30:54.065Z,15.19
2019-04-30T09:35:52.006Z,15.68
2019-04-30T09:40:50.707Z,16.08
2019-04-30T09:45:49.580Z,16.46
2019-04-30T09:50:46.429Z,17.16
2019-04-30T09:55:44.429Z,17.24
2019-04-30T10:00:40.749Z,17.52
2019-04-30T10:05:38.971Z,17.70
2019-04-30T10:10:35.038Z,17.78
2019-04-30T10:15:31.383Z,18.07
2019-04-30T10:20:27.949Z,18.19
2019-04-30T10:25:23.987Z,17.82
2019-04-30T10:30:21.202Z,18.25
2019-04-30T10:35:18.380Z,18.28
2019-04-30T10:40:15.424Z,18.49
2019-04-30T10:45:12.215Z,18.58
2019-04-30T10:50:09.902Z,18.50
2019-04-30T10:55:09.333Z,18.08
2019-04-30T11:00:04.752Z,18.86
2019-04-30T11:05:01.300Z,19.19
2019-04-30T11:09:58.873Z,20.06
2019-04-30T11:14:54.994Z,19.51
2019-04-30T11:19:51.782Z,19.76
2019-04-30T11:24:58.825Z,20.13
2019-04-30T11:29:49.586Z,20.14
2019-04-30T11:34:46.522Z,19.88
2019-04-30T11:39:43.006Z,20.00
2019-04-30T11:44:40.347Z,19.27
2019-04-30T11:49:35.871Z,19.55
2019-04-30T11:54:33.297Z,19.55
2019-04-30T11:59:29.924Z,20.13
2019-04-30T12:04:26.262Z,20.24
2019-04-30T12:09:22.478Z,20.21
2019-04-30T12:14:18.237Z,19.39
2019-04-30T12:19:13.704Z,19.47
2019-04-30T12:24:08.089Z,19.58
2019-04-30T12:29:05.064Z,18.90
2019-04-30T12:33:59.667Z,18.70
2019-04-30T12:38:55.240Z,18.56
2019-04-30T12:43:52.116Z,18.63
2019-04-30T12:48:49.403Z,18.63
2019-04-30T12:53:44.963Z,18.23
2019-04-30T12:58:40.403Z,18.65
2019-04-30T13:03:39.954Z,19.40
2019-04-30T13:08:36.871Z,19.52
2019-04-30T13:13:33.040Z,19.52
2019-04-30T13:18:29.672Z,19.84
2019-04-30T13:23:25.911Z,20.00
2019-04-30T13:28:21.467Z,19.70
2019-04-30T13:33:20.262Z,18.96
2019-04-30T13:38:15.867Z,18.43
2019-04-30T13:43:11.436Z,18.23
2019-04-30T13:48:08.799Z,18.00
2019-04-30T13:53:03.947Z,17.87
2019-04-30T13:57:59.425Z,17.78
2019-04-30T14:02:55.390Z,17.80
2019-04-30T14:07:51.162Z,17.79
2019-04-30T14:12:47.955Z,17.92
2019-04-30T14:17:43.473Z,17.83
2019-04-30T14:22:40.303Z,17.76
2019-04-30T14:27:48.547Z,18.08
2019-04-30T14:32:36.460Z,18.22
2019-04-30T14:37:33.214Z,18.35
2019-04-30T14:42:29.851Z,18.40
2019-04-30T14:47:26.778Z,18.03
2019-04-30T14:52:23.173Z,17.98
2019-04-30T14:57:18.758Z,17.78
2019-04-30T15:02:14.920Z,17.78
2019-04-30T15:07:11.081Z,17.65
2019-04-30T15:12:06.826Z,17.67
2019-04-30T15:17:02.942Z,17.67
2019-04-30T15:22:00.985Z,17.74
2019-04-30T15:26:58.340Z,17.70
2019-04-30T15:31:54.415Z,17.64
2019-04-30T15:36:51.203Z,17.39
2019-04-30T15:41:46.857Z,17.42
2019-04-30T15:46:42.700Z,17.48
2019-04-30T15:51:38.696Z,17.48
2019-04-30T15:56:39.973Z,17.54
2019-04-30T16:01:35.541Z,17.41
2019-04-30T16:06:31.560Z,17.49
2019-04-30T16:11:29.437Z,17.44
2019-04-30T16:16:24.714Z,17.45
2019-04-30T16:21:21.969Z,17.42
2019-04-30T16:26:17.880Z,17.46
2019-04-30T16:31:13.515Z,17.46
2019-04-30T16:36:10.722Z,17.38
2019-04-30T16:41:06.283Z,17.29
2019-04-30T16:46:03.050Z,17.26
2019-04-30T16:50:58.728Z,17.22
2019-04-30T16:55:54.616Z,17.23
2019-04-30T17:00:50.922Z,17.05
2019-04-30T17:05:49.887Z,17.11
2019-04-30T17:10:45.132Z,17.11
2019-04-30T17:15:40.784Z,17.11
2019-04-30T17:20:38.571Z,17.04
2019-04-30T17:25:34.001Z,16.99
2019-04-30T17:30:30.835Z,17.01
2019-04-30T17:35:26.509Z,16.91
2019-04-30T17:40:26.466Z,16.76
2019-04-30T17:45:21.440Z,16.81
2019-04-30T17:50:18.765Z,16.75
2019-04-30T17:55:14.036Z,16.60
2019-04-30T18:00:16.906Z,16.64
2019-04-30T18:05:11.114Z,16.54
2019-04-30T18:10:08.767Z,16.39
2019-04-30T18:15:04.228Z,16.36
2019-04-30T18:19:59.883Z,16.28
2019-04-30T18:24:55.783Z,16.20
2019-04-30T18:29:51.907Z,16.08
2019-04-30T18:34:49.099Z,15.92
2019-04-30T18:39:44.289Z,15.83
2019-04-30T18:44:40.938Z,15.76
2019-04-30T18:49:39.370Z,15.76
2019-04-30T18:54:35.362Z,15.55
2019-04-30T18:59:32.674Z,15.44
2019-04-30T19:04:28.840Z,15.43
2019-04-30T19:09:24.364Z,15.29
2019-04-30T19:14:20.440Z,15.22
2019-04-30T19:19:16.369Z,15.11
2019-04-30T19:24:12.718Z,15.00
2019-04-30T19:29:09.557Z,14.85
2019-04-30T19:34:06.096Z,14.88
2019-04-30T19:39:02.365Z,14.78
2019-04-30T19:43:57.935Z,14.73
2019-04-30T19:48:54.783Z,14.59
2019-04-30T19:53:50.759Z,14.44
2019-04-30T19:58:55.679Z,14.36
2019-04-30T20:03:46.227Z,14.37
2019-04-30T20:08:41.970Z,14.25
2019-04-30T20:13:37.656Z,14.18
2019-04-30T20:18:33.412Z,14.04
2019-04-30T20:23:29.261Z,13.96
2019-04-30T20:28:25.103Z,13.86
2019-04-30T20:33:20.961Z,13.89
2019-04-30T20:38:16.715Z,13.78
2019-04-30T20:43:13.018Z,13.71
2019-04-30T20:48:09.036Z,13.67
2019-04-30T20:53:05.200Z,13.54
2019-04-30T20:58:00.889Z,13.60
2019-04-30T21:02:59.772Z,13.54
2019-04-30T21:07:54.800Z,13.54
2019-04-30T21:12:50.624Z,13.33
2019-04-30T21:17:48.369Z,13.09
2019-04-30T21:22:45.532Z,12.97
2019-04-30T21:27:41.239Z,12.85
2019-04-30T21:32:38.295Z,12.78
2019-04-30T21:37:33.853Z,12.70
2019-04-30T21:42:29.827Z,12.61
2019-04-30T21:47:25.531Z,12.64
2019-04-30T21:52:21.026Z,12.60
2019-04-30T21:57:17.947Z,12.50
2019-04-30T22:02:14.529Z,12.42
2019-04-30T22:07:11.109Z,12.29
2019-04-30T22:12:06.500Z,12.24
2019-04-30T22:17:01.998Z,12.20
2019-04-30T22:21:59.453Z,12.20
2019-04-30T22:26:56.278Z,12.17
2019-04-30T22:31:51.404Z,11.81
2019-04-30T22:36:48.938Z,11.87
2019-04-30T22:41:43.854Z,11.86
2019-04-30T22:46:39.656Z,11.63
2019-04-30T22:51:35.547Z,11.63
2019-04-30T22:56:33.151Z,11.50
2019-04-30T23:01:28.808Z,11.33
2019-04-30T23:06:24.363Z,11.41
2019-04-30T23:11:21.306Z,11.27
2019-04-30T23:16:17.879Z,11.32
2019-04-30T23:21:14.558Z,11.30
2019-04-30T23:26:10.040Z,11.12
2019-04-30T23:31:05.641Z,10.94
2019-04-30T23:36:01.400Z,11.02
2019-04-30T23:40:57.073Z,10.90
2019-04-30T23:45:52.895Z,10.90
2019-04-30T23:50:48.791Z,10.82
2019-04-30T23:55:44.596Z,10.72
